Latest Weather Observations for Ernabella/Pukatja

IDD60801

Issued at 5:01 pm CST Saturday 28 January 2023 (issued every 10 minutes, with the page automatically refreshed every 10 minutes)

About weather observations | Map of weather stations | Latest weather observations for NT | Other Formats
Station Details ID: 016097 Name: PUKATJA Lat: -26.26 Lon: 132.18 Height: 703.2 m
Data from the previous 72 hours. | See also: Recent months at Ernabella/Pukatja
Date/Time
CST
Temp
°C
App
Temp
°C
Dew
Point
°C
Rel
Hum
%
Delta-T
°C
Wind Press
QNH
hPa
Press
MSL
hPa
Rain since
9am
mm
Dir  Spd
km/h
Gust
km/h
Spd
kts
Gust
kts
28/05:00pm 26.0 23.4 20.6 72 3.6 SW 35 46 19 25 1006.1 1000.7 0.8
28/04:58pm 26.0 23.0 20.6 72 3.6 SW 37 46 20 25 1006.1 1000.7 0.8
28/04:43pm 26.9 23.7 20.3 67 4.4 SW 37 48 20 26 1006.5 1001.0 0.8
28/04:30pm 29.2 31.0 19.5 56 6.5 WNW 9 39 5 21 1006.5 1001.0 0.8
28/04:00pm 31.0 31.1 18.4 47 8.3 WNW 15 22 8 12 1006.5 1001.0 0.8
28/03:30pm 30.7 31.4 18.8 49 7.9 WNW 13 24 7 13 1007.0 1001.5 0.8
28/03:00pm 29.2 29.7 18.3 51 7.2 WNW 13 19 7 10 1007.6 1002.2 0.8
28/02:30pm 29.2 29.4 18.6 52 7.0 WNW 15 20 8 11 1008.0 1002.5 0.8
28/02:00pm 28.0 28.0 19.0 58 6.0 NW 17 26 9 14 1008.3 1002.8 0.8
28/01:30pm 27.5 27.8 18.8 59 5.7 NW 15 22 8 12 1008.5 1003.1 0.6
28/01:00pm 26.4 27.3 20.0 68 4.3 N 15 20 8 11 1008.9 1003.5 0.6
28/12:30pm 26.0 28.4 20.8 73 3.5 NNW 9 19 5 10 1009.4 1003.9 0.6
28/12:00pm 24.6 26.6 19.9 75 3.1 NNE 9 13 5 7 1009.8 1004.3 0.6
28/11:30am 23.2 24.2 20.2 83 2.0 NE 15 20 8 11 1010.4 1005.0 0.6
28/11:00am 21.8 24.2 21.6 99 0.1 N 11 15 6 8 1011.3 1005.9 0.6
28/10:30am 20.9 22.9 20.7 99 0.1 NNW 11 17 6 9 1011.7 1006.3 0.6
28/10:00am 21.0 23.4 20.8 99 0.1 NNW 9 15 5 8 1011.7 1006.3 0.2
28/09:30am 21.0 23.3 20.7 98 0.2 N 9 15 5 8 1011.8 1006.4 0.2
28/09:00am 21.2 24.0 20.9 98 0.2 NNE 7 9 4 5 1011.8 1006.4 0.2
28/08:30am 20.6 22.8 20.3 98 0.2 N 9 13 5 7 1011.8 1006.4 0.2
28/08:00am 20.4 22.9 20.2 99 0.1 N 7 11 4 6 1011.8 1006.4 6.0
28/07:30am 20.6 23.3 20.3 98 0.2 NW 6 11 3 6 1011.8 1006.4 5.4
28/07:00am 20.8 23.0 20.5 98 0.2 WSW 9 13 5 7 1011.6 1006.2 4.8
28/06:30am 21.2 22.7 19.7 91 1.0 W 11 17 6 9 1011.5 1006.1 3.8
28/06:00am 22.4 25.7 21.4 94 0.7 SW 6 9 3 5 1011.0 1005.5 3.0
28/05:30am 22.9 25.6 20.2 85 1.8 SW 6 11 3 6 1010.3 1004.9 2.8
28/05:00am 22.7 24.7 20.0 85 1.8 S 9 15 5 8 1009.6 1004.1 2.8
28/04:30am 23.0 24.9 19.8 82 2.1 NNE 9 15 5 8 1009.6 1004.1 2.8
28/04:00am 23.7 25.5 19.6 78 2.7 SE 9 19 5 10 1009.4 1003.9 2.8
28/03:30am 25.2 25.4 17.7 63 4.8 SSW 13 17 7 9 1008.9 1003.5 2.8
28/03:00am 25.1 25.1 18.1 65 4.5 SW 15 19 8 10 1009.4 1003.9 2.8
28/02:30am 24.7 28.2 19.5 73 3.4 CALM 0 0 0 0 1009.2 1003.8 2.8
28/02:00am 24.7 26.3 17.9 66 4.4 NNW 6 9 3 5 1009.4 1003.9 2.8
28/01:30am 24.6 27.6 19.2 72 3.6 WSW 2 9 1 5 1009.2 1003.8 2.8
28/01:00am 24.9 25.8 18.4 67 4.2 WSW 11 15 6 8 1009.5 1004.0 2.8
28/12:30am 24.9 25.7 19.1 70 3.8 WSW 13 17 7 9 1009.7 1004.2 2.8
28/12:00am 25.2 26.2 18.6 67 4.3 W 11 15 6 8 1010.1 1004.7 2.8
 
Date/Time
CST
Temp
°C
App
Temp
°C
Dew
Point
°C
Rel
Hum
%
Delta-T
°C
Wind Press
QNH
hPa
Press
MSL
hPa
Rain since
9am
mm
Dir  Spd
km/h
Gust
km/h
Spd
kts
Gust
kts
27/11:30pm 24.6 26.3 19.4 73 3.4 WSW 9 13 5 7 1010.5 1005.1 2.8
27/11:00pm 23.9 26.6 20.2 80 2.5 SW 6 6 3 3 1010.9 1005.4 2.8
27/10:30pm 23.6 25.2 20.7 84 1.9 SW 13 13 7 7 1010.7 1005.3 2.8
27/10:00pm 23.2 23.8 20.2 83 2.0 WNW 17 20 9 11 1010.4 1005.0 2.8
27/09:30pm 23.4 24.6 20.7 85 1.8 SW 15 17 8 9 1010.2 1004.8 2.8
27/09:00pm 23.0 25.1 19.4 80 2.4 W 7 13 4 7 1011.6 1006.2 1.0
27/08:30pm 23.9 23.0 18.3 71 3.6 NW 20 30 11 16 1010.9 1005.4 0.4
27/08:00pm 26.8 23.5 16.1 52 6.8 NNW 28 39 15 21 1010.3 1004.9 0.2
27/07:55pm 26.9 23.7 16.2 52 6.8 NW 28 39 15 21 1010.2 1004.8 0.2
27/07:30pm 29.3 30.1 15.8 44 8.6 W 6 9 3 5 1009.1 1003.7 0.2
27/07:00pm 29.3 29.1 15.8 44 8.6 W 11 13 6 7 1008.7 1003.3 0.2
27/06:30pm 29.4 29.7 15.9 44 8.6 W 9 11 5 6 1008.7 1003.3 0.2
27/06:00pm 29.1 29.5 16.3 46 8.2 WSW 9 11 5 6 1008.5 1003.1 0.2
27/05:30pm 28.4 28.2 16.7 49 7.5 W 13 22 7 12 1008.9 1003.5 0.2
27/05:00pm 25.7 25.8 19.1 67 4.4 N 17 37 9 20 1008.6 1003.2 0.0
27/04:45pm 25.2 21.1 16.4 58 5.6 NNE 33 52 18 28 1008.9 1003.5 0.0
27/04:30pm 30.3 24.5 12.7 34 10.7 N 35 57 19 31 1008.8 1003.4 0.0
27/04:20pm 31.7 26.4 13.0 32 11.5 N 33 52 18 28 1008.3 1002.8 0.0
27/04:00pm 34.1 29.5 12.4 26 13.3 N 28 54 15 29 1008.1 1002.6 0.0
27/03:30pm 36.5 33.3 12.0 23 15.1 N 20 35 11 19 1008.4 1002.9 0.0
27/03:00pm 36.0 31.0 10.9 22 15.2 N 28 39 15 21 1008.9 1003.5 0.0
27/02:30pm 36.4 33.0 11.3 22 15.3 NNW 20 39 11 21 1009.4 1003.9 0.0
27/02:00pm 35.0 31.6 12.6 26 13.9 NNW 22 33 12 18 1010.0 1004.6 0.0
27/01:30pm 35.9 33.9 12.8 25 14.4 NNW 15 30 8 16 1010.6 1005.2 0.0
27/01:00pm 35.6 32.6 12.5 24 14.3 NNW 20 41 11 22 1011.0 1005.5 0.0
27/12:30pm 34.9 31.9 12.0 25 14.0 NNW 19 30 10 16 1011.4 1006.0 0.0
27/12:00pm 33.4 31.5 12.9 28 12.7 NNW 15 24 8 13 1011.7 1006.3 0.0
27/11:30am 33.6 31.0 13.1 29 12.7 NNW 19 33 10 18 1012.1 1006.7 0.0
27/11:00am 34.0 31.3 13.5 29 12.8 WNW 20 35 11 19 1012.4 1006.9 0.0
27/10:30am 32.1 29.1 13.8 33 11.4 NW 22 35 12 19 1012.9 1007.5 0.0
27/10:00am 33.3 30.4 13.9 31 12.1 NW 22 33 12 18 1013.3 1007.9 0.0
27/09:30am 32.4 29.0 12.6 30 12.1 NNW 22 32 12 17 1013.6 1008.2 0.0
27/09:00am 31.4 25.9 4.2 18 14.5 NNE 22 35 12 19 1013.7 1008.4 0.0
27/08:30am 30.4 23.8 1.8 16 14.6 NNE 26 39 14 21 1013.9 1008.5 0.0
27/08:00am 30.7 23.9 1.1 15 15.0 NNE 26 37 14 20 1013.7 1008.4 0.0
27/07:30am 29.2 23.0 -0.1 15 14.4 NE 22 28 12 15 1013.7 1008.4 0.0
27/07:00am 28.9 22.4 0.6 16 14.0 NE 24 35 13 19 1013.6 1008.2 0.0
27/06:30am 28.0 23.4 3.7 21 12.6 NE 17 24 9 13 1013.2 1007.8 0.0
27/06:00am 27.9 22.7 5.5 24 12.0 NE 22 33 12 18 1012.9 1007.5 0.0
27/05:30am 26.9 23.0 6.9 28 10.9 NE 17 24 9 13 1012.7 1007.3 0.0
27/05:00am 25.0 21.2 5.7 29 10.2 ENE 15 17 8 9 1012.6 1007.2 0.0
27/04:30am 25.3 21.8 5.5 28 10.5 ENE 13 17 7 9 1012.4 1006.9 0.0
27/04:00am 26.1 21.8 5.1 26 11.1 E 17 22 9 12 1012.1 1006.7 0.0
27/03:30am 26.7 22.0 5.1 25 11.4 ENE 19 20 10 11 1011.9 1006.5 0.0
27/03:00am 26.0 21.8 3.9 24 11.4 ENE 15 19 8 10 1011.8 1006.4 0.0
27/02:30am 26.5 22.3 3.7 23 11.8 NE 15 17 8 9 1011.8 1006.4 0.0
27/02:00am 27.1 22.4 2.9 21 12.3 ENE 17 20 9 11 1012.0 1006.6 0.0
27/01:30am 27.3 23.0 3.1 21 12.4 ENE 15 19 8 10 1012.1 1006.7 0.0
27/01:00am 28.9 24.2 3.0 19 13.4 ENE 17 20 9 11 1012.4 1006.9 0.0
27/12:30am 27.6 23.7 3.3 21 12.5 ENE 13 15 7 8 1012.6 1007.2 0.0
27/12:00am 28.3 24.4 3.2 20 13.0 NE 13 15 7 8 1012.8 1007.4 0.0
 
Date/Time
CST
Temp
°C
App
Temp
°C
Dew
Point
°C
Rel
Hum
%
Delta-T
°C
Wind Press
QNH
hPa
Press
MSL
hPa
Rain since
9am
mm
Dir  Spd
km/h
Gust
km/h
Spd
kts
Gust
kts
26/11:30pm 29.3 25.4 3.3 19 13.5 ENE 13 15 7 8 1012.7 1007.3 0.0
26/11:00pm 30.0 25.7 3.1 18 14.0 NE 15 17 8 9 1012.9 1007.5 0.0
26/10:30pm 30.9 26.4 2.2 16 14.8 ENE 15 20 8 11 1012.8 1007.4 0.0
26/10:00pm 32.2 27.3 2.3 15 15.6 ENE 17 20 9 11 1012.7 1007.3 0.0
26/09:30pm 33.5 28.1 2.4 14 16.3 E 20 28 11 15 1012.4 1006.9 0.0
26/09:00pm 33.5 28.9 1.3 13 16.6 ESE 15 20 8 11 1012.1 1006.7 0.0
26/08:30pm 34.4 29.7 0.9 12 17.3 E 15 20 8 11 1011.8 1006.4 0.0
26/08:00pm 34.5 29.8 1.0 12 17.3 E 15 19 8 10 1011.5 1006.1 0.0
26/07:30pm 35.4 31.0 0.5 11 18.0 E 13 20 7 11 1011.3 1005.9 0.0
26/07:00pm 36.7 32.1 1.5 11 18.6 E 15 24 8 13 1011.1 1005.6 0.0
26/06:30pm 37.3 32.2 0.6 10 19.2 ENE 17 26 9 14 1011.0 1005.5 0.0
26/06:00pm 37.2 32.1 0.5 10 19.1 E 17 26 9 14 1011.0 1005.5 0.0
26/05:30pm 37.6 32.7 -0.6 9 19.6 NE 15 24 8 13 1011.0 1005.5 0.0
26/05:00pm 37.4 33.2 -0.8 9 19.5 NNE 11 20 6 11 1011.0 1005.5 0.0
26/04:30pm 37.7 34.1 0.9 10 19.3 E 9 20 5 11 1011.3 1005.9 0.0
26/04:00pm 37.9 33.6 1.0 10 19.4 NE 13 26 7 14 1011.6 1006.2 0.0
26/03:30pm 37.4 32.8 -0.8 9 19.5 ENE 13 28 7 15 1011.8 1006.4 0.0
26/03:00pm 37.1 31.8 1.8 11 18.7 SE 19 43 10 23 1012.1 1006.7 0.0
26/02:30pm 37.6 32.5 0.8 10 19.3 NNE 17 30 9 16 1012.7 1007.3 0.0
26/02:00pm 37.8 33.1 1.0 10 19.4 ESE 15 26 8 14 1013.1 1007.7 0.0
26/01:30pm 37.1 31.8 1.8 11 18.7 ESE 19 30 10 16 1013.5 1008.1 0.0
26/01:00pm 37.7 32.3 2.2 11 19.0 ENE 20 32 11 17 1014.2 1008.8 0.0
26/12:30pm 36.4 30.8 1.2 11 18.4 NNE 20 32 11 17 1014.5 1009.1 0.0
26/12:00pm 36.4 30.4 1.2 11 18.4 NE 22 33 12 18 1014.8 1009.4 0.0
26/11:30am 36.4 30.0 1.2 11 18.4 ENE 24 35 13 19 1015.2 1009.9 0.0
26/11:00am 35.8 28.6 0.8 11 18.1 ENE 28 37 15 20 1015.7 1010.3 0.0
26/10:30am 34.3 26.9 -0.4 11 17.5 ENE 28 39 15 21 1016.1 1010.7 0.0
26/10:00am 33.4 25.7 0.1 12 16.8 ENE 30 39 16 21 1016.5 1011.2 0.0
26/09:30am 32.8 25.3 -1.5 11 16.8 ENE 28 39 15 21 1016.6 1011.3 0.0
26/09:00am 31.5 23.1 -2.5 11 16.3 ENE 32 41 17 22 1016.7 1011.4 0.0
26/08:30am 30.5 22.0 -3.3 11 15.8 E 32 39 17 21 1016.8 1011.5 0.0
26/08:00am 29.9 23.0 -2.6 12 15.3 E 24 33 13 18 1016.7 1011.4 0.0
26/07:30am 28.7 23.5 -2.4 13 14.6 ESE 15 24 8 13 1016.6 1011.3 0.0
26/07:00am 27.6 22.5 -2.3 14 13.9 SE 15 24 8 13 1016.4 1011.1 0.0
26/06:30am 27.2 22.1 -1.7 15 13.6 SE 15 24 8 13 1016.0 1010.6 0.0
26/06:00am 27.2 21.4 -1.7 15 13.6 SE 19 28 10 15 1015.4 1010.0 0.0
26/05:30am 27.6 21.7 -2.3 14 13.9 SE 19 26 10 14 1014.7 1009.3 0.0
26/05:00am 27.7 21.6 -2.2 14 14.0 SE 20 30 11 16 1014.4 1009.0 0.0
26/04:30am 27.8 21.6 -0.3 16 13.6 SE 22 39 12 21 1014.2 1008.8 0.0
26/04:00am 27.4 21.8 1.0 18 13.0 SE 20 32 11 17 1014.0 1008.6 0.0
26/03:30am 26.9 21.7 3.4 22 12.1 SE 20 26 11 14 1013.5 1008.1 0.0
26/03:00am 27.6 21.3 4.0 22 12.3 SE 26 33 14 18 1013.0 1007.6 0.0
26/02:30am 28.5 22.8 4.7 22 12.6 SE 24 33 13 18 1013.0 1007.6 0.0
26/02:00am 27.5 24.1 5.7 25 11.7 SE 13 24 7 13 1012.8 1007.4 0.0
26/01:30am 23.0 21.9 5.0 31 9.3 CALM 0 0 0 0 1013.0 1007.6 0.0
26/01:00am 23.0 22.0 5.4 32 9.1 CALM 0 0 0 0 1013.1 1007.7 0.0
26/12:30am 23.7 22.6 5.1 30 9.7 CALM 0 0 0 0 1013.3 1007.9 0.0
26/12:00am 24.1 21.6 4.5 28 10.1 E 7 9 4 5 1013.2 1007.8 0.0
 
Date/Time
CST
Temp
°C
App
Temp
°C
Dew
Point
°C
Rel
Hum
%
Delta-T
°C
Wind Press
QNH
hPa
Press
MSL
hPa
Rain since
9am
mm
Dir  Spd
km/h
Gust
km/h
Spd
kts
Gust
kts
25/11:30pm 25.2 22.9 4.9 27 10.6 E 6 7 3 4 1013.3 1007.9 0.0
25/11:00pm 27.0 24.7 4.7 24 11.7 E 6 7 3 4 1013.4 1008.0 0.0
25/10:30pm 28.2 27.0 4.5 22 12.5 CALM 0 0 0 0 1013.3 1007.9 0.0
25/10:00pm 29.4 28.1 4.1 20 13.3 CALM 0 0 0 0 1013.2 1007.8 0.0
25/09:30pm 29.7 28.5 4.4 20 13.4 CALM 0 6 0 3 1013.0 1007.6 0.0
25/09:00pm 31.3 28.7 4.2 18 14.5 NNE 7 15 4 8 1012.7 1007.3 0.0
25/08:30pm 32.1 28.7 4.0 17 15.0 NNE 11 17 6 9 1012.1 1006.7 0.0
25/08:00pm 33.3 28.0 3.2 15 16.0 ENE 20 28 11 15 1011.8 1006.4 0.0
25/07:30pm 33.6 31.0 3.4 15 16.1 ENE 6 7 3 4 1011.4 1006.0 0.0
25/07:00pm 34.6 33.1 3.2 14 16.8 CALM 0 0 0 0 1011.3 1005.9 0.0
25/06:30pm 35.4 32.5 1.7 12 17.7 NE 6 9 3 5 1011.0 1005.5 0.0
25/06:00pm 35.5 33.2 2.9 13 17.4 SSE 4 6 2 3 1010.7 1005.3 0.0
25/05:30pm 35.8 33.0 2.0 12 17.9 SSW 6 7 3 4 1010.5 1005.1 0.0
25/05:00pm 35.6 32.4 3.0 13 17.5 E 9 13 5 7 1010.5 1005.1 0.0
25/04:30pm 36.3 33.2 3.5 13 17.8 ENE 9 19 5 10 1010.5 1005.1 0.0

Other formats

Comma delimited format used in spreadsheet applications
http://www.bom.gov.au/fwo/IDD60801/IDD60801.94474.axf

JavaScript Object Notation format (JSON) in row-major order
http://www.bom.gov.au/fwo/IDD60801/IDD60801.94474.json

Data quality

Most of these data are generated automatically and are frequently updated. Quality checks on data are not normally performed. It is possible for incorrect values to appear. Refer to information at About Latest Weather Observations and please check the disclaimer before using these data.